createdAt,value
2022-10-22T00:01:31.830Z,7.44
2022-10-22T00:04:00.388Z,7.43
2022-10-22T00:06:29.181Z,7.42
2022-10-22T00:08:57.639Z,7.40
2022-10-22T00:11:26.151Z,7.38
2022-10-22T00:13:56.136Z,7.40
2022-10-22T00:16:24.116Z,7.38
2022-10-22T00:18:52.427Z,7.39
2022-10-22T00:21:20.992Z,7.39
2022-10-22T00:23:49.368Z,7.42
2022-10-22T00:26:17.358Z,7.44
2022-10-22T00:28:45.310Z,7.45
2022-10-22T00:31:15.718Z,7.45
2022-10-22T00:33:46.973Z,7.38
2022-10-22T00:36:16.924Z,7.37
2022-10-22T00:38:45.153Z,7.37
2022-10-22T00:41:13.941Z,7.35
2022-10-22T00:44:00.106Z,7.32
2022-10-22T00:46:29.152Z,7.26
2022-10-22T00:49:02.039Z,7.18
2022-10-22T00:51:34.068Z,7.12
2022-10-22T00:54:08.056Z,7.06
2022-10-22T00:56:37.186Z,7.06
2022-10-22T00:59:05.505Z,7.02
2022-10-22T01:01:33.560Z,7.00
2022-10-22T01:04:01.815Z,6.97
2022-10-22T01:06:34.940Z,6.95
2022-10-22T01:09:26.977Z,6.91
2022-10-22T01:12:15.010Z,6.88
2022-10-22T01:15:01.445Z,6.85
2022-10-22T01:17:36.844Z,6.81
2022-10-22T01:20:24.682Z,6.78
2022-10-22T01:23:40.850Z,6.73
2022-10-22T01:26:25.252Z,6.68
2022-10-22T01:29:05.495Z,6.67
2022-10-22T01:31:39.987Z,6.65
2022-10-22T01:34:11.262Z,6.61
2022-10-22T01:36:40.341Z,6.60
2022-10-22T01:39:11.357Z,6.58
2022-10-22T01:41:40.507Z,6.57
2022-10-22T01:44:24.140Z,6.57
2022-10-22T01:47:05.678Z,6.58
2022-10-22T01:49:54.757Z,6.58
2022-10-22T01:52:42.267Z,6.57
2022-10-22T01:55:16.482Z,6.59
2022-10-22T01:58:17.686Z,6.55
2022-10-22T02:00:56.614Z,6.53
2022-10-22T02:03:40.795Z,6.52
2022-10-22T02:06:17.992Z,6.54
2022-10-22T02:08:47.938Z,6.58
2022-10-22T02:11:17.734Z,6.64
2022-10-22T02:13:53.586Z,6.68
2022-10-22T02:16:33.887Z,6.74
2022-10-22T02:19:08.256Z,6.80
2022-10-22T02:21:36.263Z,6.79
2022-10-22T02:24:04.787Z,6.79
2022-10-22T02:27:09.822Z,6.78
2022-10-22T02:29:43.740Z,6.79
2022-10-22T02:32:19.599Z,6.80
2022-10-22T02:34:50.285Z,6.82
2022-10-22T02:37:20.141Z,6.85
2022-10-22T02:39:49.593Z,6.82
2022-10-22T02:42:18.541Z,6.78
2022-10-22T02:44:47.014Z,6.72
2022-10-22T02:47:14.988Z,6.67
2022-10-22T02:49:43.155Z,6.64
2022-10-22T02:52:12.268Z,6.61
2022-10-22T02:54:40.438Z,6.58
2022-10-22T02:57:08.450Z,6.53
2022-10-22T02:59:36.627Z,6.51
2022-10-22T03:02:04.684Z,6.47
2022-10-22T03:04:32.871Z,6.45
2022-10-22T03:07:01.278Z,6.45
2022-10-22T03:09:29.500Z,6.45
2022-10-22T03:11:57.487Z,6.44
2022-10-22T03:14:25.621Z,6.43
2022-10-22T03:16:53.597Z,6.43
2022-10-22T03:19:21.636Z,6.45
2022-10-22T03:21:56.229Z,6.43
2022-10-22T03:24:28.820Z,6.40
2022-10-22T03:26:57.782Z,6.34
2022-10-22T03:29:27.907Z,6.30
2022-10-22T03:31:56.150Z,6.25
2022-10-22T03:34:24.201Z,6.21
2022-10-22T03:36:54.955Z,6.18
2022-10-22T03:39:25.919Z,6.12
2022-10-22T03:41:54.308Z,6.09
2022-10-22T03:44:23.728Z,6.02
2022-10-22T03:46:51.881Z,5.95
2022-10-22T03:49:21.073Z,5.86
2022-10-22T03:51:49.131Z,5.82
2022-10-22T03:54:17.164Z,5.82
2022-10-22T03:56:45.238Z,5.79
2022-10-22T03:59:13.583Z,5.74
2022-10-22T04:01:41.755Z,5.71
2022-10-22T04:04:10.255Z,5.69
2022-10-22T04:06:38.237Z,5.70
2022-10-22T04:09:06.365Z,5.72
2022-10-22T04:11:36.178Z,5.71
2022-10-22T04:14:05.404Z,5.69
2022-10-22T04:16:33.919Z,5.68
2022-10-22T04:19:02.117Z,5.67
2022-10-22T04:21:31.543Z,5.68
2022-10-22T04:23:59.719Z,5.70
2022-10-22T04:26:27.729Z,5.73
2022-10-22T04:28:55.627Z,5.75
2022-10-22T04:31:25.421Z,5.77
2022-10-22T04:33:59.439Z,5.82
2022-10-22T04:36:30.444Z,5.86
2022-10-22T04:39:01.013Z,5.92
2022-10-22T04:41:32.623Z,5.97
2022-10-22T04:44:02.413Z,6.03
2022-10-22T04:46:32.955Z,6.07
2022-10-22T04:49:03.985Z,6.07
2022-10-22T04:51:32.946Z,6.06
2022-10-22T04:54:00.986Z,6.06
2022-10-22T04:56:31.766Z,6.05
2022-10-22T04:59:02.318Z,6.04
2022-10-22T05:01:35.741Z,6.06
2022-10-22T05:04:08.204Z,6.12
2022-10-22T05:06:37.209Z,6.14
2022-10-22T05:09:09.187Z,6.20
2022-10-22T05:11:41.515Z,6.27
2022-10-22T05:14:11.555Z,6.30
2022-10-22T05:16:40.371Z,6.29
2022-10-22T05:19:08.950Z,6.29
2022-10-22T05:21:37.703Z,6.29
2022-10-22T05:24:06.709Z,6.27
2022-10-22T05:26:35.311Z,6.25
2022-10-22T05:29:03.425Z,6.24
2022-10-22T05:31:31.519Z,6.23
2022-10-22T05:33:59.847Z,6.22
2022-10-22T05:36:28.236Z,6.23
2022-10-22T05:38:59.718Z,6.19
2022-10-22T05:41:30.471Z,6.13
2022-10-22T05:44:00.010Z,6.14
2022-10-22T05:46:43.727Z,6.18
2022-10-22T05:49:14.458Z,6.13
2022-10-22T05:51:42.651Z,6.14
2022-10-22T05:54:17.268Z,6.19
2022-10-22T05:56:46.164Z,6.25
2022-10-22T05:59:14.710Z,6.28
2022-10-22T06:01:43.123Z,6.29
2022-10-22T06:04:13.529Z,6.28
2022-10-22T06:06:49.058Z,6.32
2022-10-22T06:09:34.535Z,6.36
2022-10-22T06:12:03.541Z,6.36
2022-10-22T06:14:32.777Z,6.41
2022-10-22T06:17:00.935Z,6.45
2022-10-22T06:19:31.784Z,6.49
2022-10-22T06:22:01.013Z,6.52
2022-10-22T06:24:29.651Z,6.57
2022-10-22T06:26:57.733Z,6.63
2022-10-22T06:29:25.862Z,6.72
2022-10-22T06:31:54.843Z,6.82
2022-10-22T06:34:23.883Z,6.83
2022-10-22T06:36:52.131Z,6.89
2022-10-22T06:39:21.738Z,7.00
2022-10-22T06:41:49.799Z,7.01
2022-10-22T06:44:22.699Z,7.08
2022-10-22T06:46:53.540Z,7.14
2022-10-22T06:49:21.863Z,7.22
2022-10-22T06:51:54.870Z,7.36
2022-10-22T06:54:23.958Z,7.44
2022-10-22T06:56:52.124Z,7.50
2022-10-22T06:59:20.493Z,7.54
2022-10-22T07:01:50.281Z,7.68
2022-10-22T07:04:19.505Z,7.79
2022-10-22T07:06:48.377Z,7.89
2022-10-22T07:11:49.660Z,7.98
2022-10-22T07:14:20.940Z,8.05
2022-10-22T07:16:48.946Z,8.11
2022-10-22T07:19:18.679Z,8.16
2022-10-22T07:21:47.200Z,8.21
2022-10-22T07:24:15.279Z,8.27
2022-10-22T07:26:45.509Z,8.43
2022-10-22T07:29:15.503Z,8.56
2022-10-22T07:31:44.998Z,8.61
2022-10-22T07:34:13.153Z,8.75
2022-10-22T07:36:43.871Z,8.87
2022-10-22T07:39:12.046Z,8.95
2022-10-22T07:41:43.178Z,9.07
2022-10-22T07:44:11.450Z,8.98
2022-10-22T07:46:39.584Z,9.11
2022-10-22T07:49:09.074Z,9.21
2022-10-22T07:51:38.010Z,9.32
2022-10-22T07:54:06.249Z,9.27
2022-10-22T07:56:35.067Z,9.22
2022-10-22T07:59:03.283Z,9.24
2022-10-22T08:01:31.666Z,9.39
2022-10-22T08:04:02.179Z,9.57
2022-10-22T08:06:30.215Z,9.73
2022-10-22T08:08:58.332Z,9.80
2022-10-22T08:11:27.075Z,9.91
2022-10-22T08:13:56.410Z,9.96
2022-10-22T08:16:24.519Z,10.09
2022-10-22T08:18:53.656Z,10.00
2022-10-22T08:21:21.771Z,10.21
2022-10-22T08:23:49.799Z,10.33
2022-10-22T08:26:18.279Z,10.53
2022-10-22T08:28:48.804Z,10.63
2022-10-22T08:31:18.300Z,10.70
2022-10-22T08:33:47.417Z,10.82
2022-10-22T08:36:16.311Z,10.96
2022-10-22T08:38:44.699Z,11.16
2022-10-22T08:41:17.656Z,11.38
2022-10-22T08:44:17.080Z,11.41
2022-10-22T08:47:23.349Z,11.72
2022-10-22T08:49:54.139Z,12.00
2022-10-22T08:52:22.584Z,12.19
2022-10-22T08:55:15.592Z,12.23
2022-10-22T08:57:52.590Z,12.35
2022-10-22T09:00:46.225Z,12.19
2022-10-22T09:03:45.608Z,12.18
2022-10-22T09:06:13.678Z,12.25
2022-10-22T09:08:45.484Z,12.30
2022-10-22T09:11:13.470Z,12.18
2022-10-22T09:13:49.323Z,12.38
2022-10-22T09:16:43.272Z,12.49
2022-10-22T09:19:54.548Z,12.33
2022-10-22T09:22:42.753Z,12.56
2022-10-22T09:25:23.989Z,12.69
2022-10-22T09:27:58.681Z,12.83
2022-10-22T09:30:33.603Z,12.76
2022-10-22T09:33:07.681Z,12.88
2022-10-22T09:35:47.578Z,12.97
2022-10-22T09:38:18.993Z,13.07
2022-10-22T09:40:56.667Z,13.13
2022-10-22T09:43:25.217Z,13.26
2022-10-22T09:46:03.125Z,13.37
2022-10-22T09:48:35.412Z,13.59
2022-10-22T09:51:12.128Z,13.65
2022-10-22T09:53:46.889Z,13.87
2022-10-22T09:56:23.593Z,14.13
2022-10-22T09:58:56.908Z,14.36
2022-10-22T10:01:29.614Z,14.59
2022-10-22T10:04:10.422Z,14.76
2022-10-22T10:06:41.435Z,14.93
2022-10-22T10:09:22.339Z,15.22
2022-10-22T10:12:09.917Z,15.51
2022-10-22T10:14:52.630Z,15.59
2022-10-22T10:17:46.203Z,15.44
2022-10-22T10:20:31.953Z,15.44
2022-10-22T10:23:15.408Z,15.67
2022-10-22T10:25:56.176Z,15.67
2022-10-22T10:28:47.268Z,15.92
2022-10-22T10:32:06.576Z,15.97
2022-10-22T10:34:39.746Z,15.88
2022-10-22T10:37:13.286Z,15.97
2022-10-22T10:40:12.893Z,15.97
2022-10-22T10:43:11.183Z,16.00
2022-10-22T10:49:09.378Z,16.55
2022-10-22T10:51:58.574Z,16.66
2022-10-22T10:55:01.739Z,16.54
2022-10-22T10:57:45.930Z,16.59
2022-10-22T11:00:22.943Z,16.66
2022-10-22T11:03:14.648Z,16.84
2022-10-22T11:05:54.289Z,16.92
2022-10-22T11:08:31.633Z,16.89
2022-10-22T11:11:12.026Z,17.02
2022-10-22T11:13:52.968Z,17.10
2022-10-22T11:16:32.800Z,17.11
2022-10-22T11:19:07.411Z,16.92
2022-10-22T11:21:44.459Z,17.06
2022-10-22T11:24:35.756Z,17.00
2022-10-22T11:27:11.948Z,17.27
2022-10-22T11:29:50.606Z,17.56
2022-10-22T11:32:21.447Z,17.77
2022-10-22T11:34:59.770Z,17.86
2022-10-22T11:37:37.555Z,18.09
2022-10-22T11:40:14.838Z,18.21
2022-10-22T11:42:50.585Z,18.17
2022-10-22T11:45:20.675Z,18.43
2022-10-22T11:48:17.919Z,18.68
2022-10-22T11:51:01.910Z,19.03
2022-10-22T11:53:31.991Z,19.42
2022-10-22T11:56:22.560Z,19.29
2022-10-22T11:58:53.945Z,19.11
2022-10-22T12:01:23.285Z,19.10
2022-10-22T12:03:58.099Z,19.08
2022-10-22T12:06:29.411Z,19.18
2022-10-22T12:09:04.932Z,19.49
2022-10-22T12:11:43.026Z,19.39
2022-10-22T12:14:29.892Z,19.17
2022-10-22T12:17:03.059Z,19.14
2022-10-22T12:19:39.483Z,18.94
2022-10-22T12:22:25.166Z,18.61
2022-10-22T12:25:00.976Z,18.75
2022-10-22T12:27:38.365Z,18.59
2022-10-22T12:30:20.025Z,18.54
2022-10-22T12:32:48.340Z,18.24
2022-10-22T12:35:24.800Z,18.29
2022-10-22T12:38:15.590Z,18.28
2022-10-22T12:40:47.665Z,18.28
2022-10-22T12:43:25.419Z,18.04
2022-10-22T12:45:54.866Z,17.89
2022-10-22T12:48:25.932Z,17.87
2022-10-22T12:51:03.995Z,17.93
2022-10-22T12:53:47.383Z,17.90
2022-10-22T12:56:30.937Z,17.88
2022-10-22T12:59:29.932Z,17.84
2022-10-22T13:01:59.897Z,17.75
2022-10-22T13:04:36.411Z,17.75
2022-10-22T13:07:18.316Z,17.78
2022-10-22T13:09:55.740Z,17.74
2022-10-22T13:12:29.168Z,17.59
2022-10-22T13:15:21.997Z,17.52
2022-10-22T13:17:50.262Z,17.42
2022-10-22T13:20:22.978Z,17.45
2022-10-22T13:23:06.177Z,17.46
2022-10-22T13:25:38.770Z,17.41
2022-10-22T13:28:08.364Z,17.35
2022-10-22T13:30:38.984Z,17.34
2022-10-22T13:33:31.847Z,17.31
2022-10-22T13:36:00.239Z,17.20
2022-10-22T13:38:30.605Z,17.15
2022-10-22T13:41:00.895Z,17.17
2022-10-22T13:43:28.943Z,17.18
2022-10-22T13:46:00.996Z,17.15
2022-10-22T13:48:30.784Z,17.10
2022-10-22T13:51:00.659Z,17.05
2022-10-22T13:53:31.428Z,17.03
2022-10-22T13:55:59.756Z,17.01
2022-10-22T13:58:28.365Z,17.00
2022-10-22T14:00:59.646Z,16.94
2022-10-22T14:03:34.609Z,16.94
2022-10-22T14:06:03.769Z,16.92
2022-10-22T14:08:32.052Z,16.92
2022-10-22T14:11:01.255Z,16.91
2022-10-22T14:13:32.305Z,16.88
2022-10-22T14:16:00.546Z,16.81
2022-10-22T14:18:31.672Z,16.81
2022-10-22T14:21:05.271Z,16.79
2022-10-22T14:23:36.148Z,16.74
2022-10-22T14:26:08.058Z,16.70
2022-10-22T14:28:41.378Z,16.51
2022-10-22T14:31:23.648Z,16.57
2022-10-22T14:33:51.773Z,16.51
2022-10-22T14:36:20.897Z,16.50
2022-10-22T14:38:51.770Z,16.51
2022-10-22T14:41:24.024Z,16.51
2022-10-22T14:43:52.927Z,16.42
2022-10-22T14:46:21.385Z,16.37
2022-10-22T14:48:49.668Z,16.32
2022-10-22T14:51:20.504Z,16.27
2022-10-22T14:53:48.975Z,16.24
2022-10-22T14:56:21.940Z,16.23
2022-10-22T14:58:51.007Z,16.23
2022-10-22T15:01:20.924Z,16.27
2022-10-22T15:03:51.268Z,16.29
2022-10-22T15:06:19.348Z,16.30
2022-10-22T15:08:47.708Z,16.29
2022-10-22T15:11:16.294Z,16.29
2022-10-22T15:13:44.619Z,16.29
2022-10-22T15:16:15.075Z,16.24
2022-10-22T15:18:44.592Z,16.20
2022-10-22T15:21:18.637Z,16.19
2022-10-22T15:23:46.952Z,16.16
2022-10-22T15:26:16.431Z,16.13
2022-10-22T15:28:47.135Z,16.09
2022-10-22T15:31:15.295Z,16.06
2022-10-22T15:33:43.882Z,16.04
2022-10-22T15:36:16.236Z,16.05
2022-10-22T15:38:44.487Z,16.04
2022-10-22T15:41:13.533Z,16.04
2022-10-22T15:43:43.800Z,16.01
2022-10-22T15:46:18.199Z,15.99
2022-10-22T15:48:46.864Z,15.99
2022-10-22T15:51:17.803Z,15.92
2022-10-22T15:53:55.360Z,15.86
2022-10-22T15:56:25.196Z,15.84
2022-10-22T15:59:02.851Z,15.85
2022-10-22T16:01:33.970Z,15.78
2022-10-22T16:04:05.139Z,15.74
2022-10-22T16:06:37.524Z,15.71
2022-10-22T16:09:13.424Z,15.63
2022-10-22T16:11:42.454Z,15.54
2022-10-22T16:14:17.734Z,15.50
2022-10-22T16:16:50.436Z,15.45
2022-10-22T16:19:20.537Z,15.45
2022-10-22T16:21:51.182Z,15.45
2022-10-22T16:24:20.242Z,15.41
2022-10-22T16:26:48.881Z,15.38
2022-10-22T16:29:19.509Z,15.37
2022-10-22T16:31:50.403Z,15.35
2022-10-22T16:34:23.214Z,15.36
2022-10-22T16:36:53.975Z,15.35
2022-10-22T16:39:22.642Z,15.34
2022-10-22T16:41:54.910Z,15.33
2022-10-22T16:44:23.803Z,15.33
2022-10-22T16:46:51.906Z,15.35
2022-10-22T16:49:20.626Z,15.40
2022-10-22T16:51:49.067Z,15.42
2022-10-22T16:54:18.052Z,15.40
2022-10-22T16:56:47.336Z,15.34
2022-10-22T16:59:16.502Z,15.26
2022-10-22T17:01:44.630Z,15.20
2022-10-22T17:04:13.591Z,15.11
2022-10-22T17:06:41.668Z,15.03
2022-10-22T17:09:11.057Z,14.95
2022-10-22T17:11:41.317Z,14.91
2022-10-22T17:14:11.036Z,14.81
2022-10-22T17:16:39.948Z,14.72
2022-10-22T17:19:08.408Z,14.66
2022-10-22T17:21:37.796Z,14.57
2022-10-22T17:24:05.881Z,14.53
2022-10-22T17:26:34.737Z,14.49
2022-10-22T17:29:03.892Z,14.49
2022-10-22T17:31:37.923Z,14.49
2022-10-22T17:34:10.048Z,14.46
2022-10-22T17:36:38.544Z,14.44
2022-10-22T17:39:08.054Z,14.43
2022-10-22T17:41:38.490Z,14.42
2022-10-22T17:44:12.497Z,14.40
2022-10-22T17:46:40.966Z,14.37
2022-10-22T17:49:17.778Z,14.31
2022-10-22T17:51:47.180Z,14.29
2022-10-22T17:54:16.248Z,14.27
2022-10-22T17:56:44.481Z,14.23
2022-10-22T17:59:15.056Z,14.20
2022-10-22T18:01:46.636Z,14.18
2022-10-22T18:04:18.481Z,14.16
2022-10-22T18:06:47.967Z,14.16
2022-10-22T18:09:18.826Z,14.11
2022-10-22T18:11:49.577Z,14.08
2022-10-22T18:14:20.508Z,14.07
2022-10-22T18:16:48.991Z,14.09
2022-10-22T18:19:23.889Z,14.09
2022-10-22T18:21:52.107Z,14.08
2022-10-22T18:24:21.872Z,14.10
2022-10-22T18:26:50.997Z,14.09
2022-10-22T18:29:20.807Z,14.07
2022-10-22T18:31:50.820Z,14.08
2022-10-22T18:34:21.806Z,14.05
2022-10-22T18:36:52.811Z,14.04
2022-10-22T18:39:21.048Z,14.01
2022-10-22T18:41:51.615Z,13.99
2022-10-22T18:44:19.626Z,13.92
2022-10-22T18:46:48.153Z,13.85
2022-10-22T18:49:18.826Z,13.84
2022-10-22T18:51:52.601Z,13.83
2022-10-22T18:54:23.954Z,13.80
2022-10-22T18:57:00.468Z,13.79
2022-10-22T18:59:30.559Z,13.80
2022-10-22T19:02:02.726Z,13.75
2022-10-22T19:04:37.313Z,13.72
2022-10-22T19:09:42.105Z,13.76
2022-10-22T19:12:15.321Z,13.77
2022-10-22T19:14:45.981Z,13.78
2022-10-22T19:17:14.080Z,13.75
2022-10-22T19:19:45.035Z,13.74
2022-10-22T19:22:13.446Z,13.71
2022-10-22T19:24:41.563Z,13.67
2022-10-22T19:27:09.588Z,13.64
2022-10-22T19:29:37.741Z,13.58
2022-10-22T19:32:05.931Z,13.53
2022-10-22T19:34:34.379Z,13.48
2022-10-22T19:37:02.438Z,13.49
2022-10-22T19:39:32.830Z,13.51
2022-10-22T19:42:01.741Z,13.48
2022-10-22T19:44:34.116Z,13.49
2022-10-22T19:47:02.127Z,13.53
2022-10-22T19:49:30.203Z,13.55
2022-10-22T19:51:59.115Z,13.59
2022-10-22T19:54:28.290Z,13.62
2022-10-22T19:56:56.440Z,13.68
2022-10-22T19:59:28.657Z,13.75
2022-10-22T20:02:00.890Z,13.75
2022-10-22T20:04:29.337Z,13.73
2022-10-22T20:06:57.402Z,13.74
2022-10-22T20:09:25.440Z,13.74
2022-10-22T20:11:53.694Z,13.70
2022-10-22T20:14:24.184Z,13.61
2022-10-22T20:16:52.284Z,13.55
2022-10-22T20:19:26.134Z,13.51
2022-10-22T20:21:55.781Z,13.44
2022-10-22T20:24:23.846Z,13.38
2022-10-22T20:26:51.879Z,13.34
2022-10-22T20:29:20.570Z,13.30
2022-10-22T20:31:48.872Z,13.24
2022-10-22T20:34:17.008Z,13.19
2022-10-22T20:36:47.470Z,13.21
2022-10-22T20:39:16.441Z,13.22
2022-10-22T20:41:46.815Z,13.22
2022-10-22T20:44:17.341Z,13.19
2022-10-22T20:46:46.357Z,13.16
2022-10-22T20:49:17.272Z,13.13
2022-10-22T20:51:47.224Z,13.10
2022-10-22T20:54:15.998Z,13.08
2022-10-22T20:56:44.408Z,13.04
2022-10-22T20:59:12.839Z,12.97
2022-10-22T21:01:52.944Z,12.93
2022-10-22T21:04:21.802Z,12.89
2022-10-22T21:06:52.196Z,12.86
2022-10-22T21:09:21.550Z,12.84
2022-10-22T21:11:50.156Z,12.82
2022-10-22T21:14:22.186Z,12.85
2022-10-22T21:16:51.561Z,12.85
2022-10-22T21:19:20.464Z,12.87
2022-10-22T21:21:51.025Z,12.84
2022-10-22T21:24:20.420Z,12.88
2022-10-22T21:26:48.388Z,12.90
2022-10-22T21:29:16.434Z,12.92
2022-10-22T21:31:45.217Z,12.91
2022-10-22T21:34:15.084Z,12.96
2022-10-22T21:36:44.615Z,13.03
2022-10-22T21:39:15.286Z,13.09
2022-10-22T21:41:43.704Z,13.11
2022-10-22T21:44:12.183Z,13.11
2022-10-22T21:46:41.189Z,13.03
2022-10-22T21:49:09.877Z,13.03
2022-10-22T21:51:38.453Z,12.96
2022-10-22T21:54:07.249Z,12.93
2022-10-22T21:56:36.266Z,12.89
2022-10-22T21:59:08.111Z,12.80
2022-10-22T22:01:36.196Z,12.77
2022-10-22T22:04:06.324Z,12.82
2022-10-22T22:06:35.206Z,12.81
2022-10-22T22:09:05.320Z,12.75
2022-10-22T22:11:34.032Z,12.68
2022-10-22T22:14:03.205Z,12.62
2022-10-22T22:16:33.431Z,12.59
2022-10-22T22:19:06.110Z,12.54
2022-10-22T22:21:36.292Z,12.52
2022-10-22T22:24:05.146Z,12.46
2022-10-22T22:26:34.768Z,12.45
2022-10-22T22:29:03.163Z,12.42
2022-10-22T22:31:33.940Z,12.41
2022-10-22T22:34:05.764Z,12.44
2022-10-22T22:36:36.990Z,12.45
2022-10-22T22:39:08.702Z,12.44
2022-10-22T22:41:37.795Z,12.41
2022-10-22T22:44:06.167Z,12.38
2022-10-22T22:46:34.531Z,12.36
2022-10-22T22:49:02.702Z,12.37
2022-10-22T22:51:31.805Z,12.38
2022-10-22T22:54:01.144Z,12.43
2022-10-22T22:56:31.764Z,12.49
2022-10-22T22:58:59.999Z,12.53
2022-10-22T23:01:35.194Z,12.54
2022-10-22T23:04:03.377Z,12.53
2022-10-22T23:06:34.950Z,12.54
2022-10-22T23:09:10.669Z,12.54
2022-10-22T23:11:41.202Z,12.49
2022-10-22T23:14:13.961Z,12.48
2022-10-22T23:16:48.666Z,12.45
2022-10-22T23:19:21.886Z,12.36
2022-10-22T23:21:54.503Z,12.33
2022-10-22T23:24:26.188Z,12.29
2022-10-22T23:27:03.248Z,12.24
2022-10-22T23:29:33.896Z,12.19
2022-10-22T23:32:07.582Z,12.15
2022-10-22T23:34:35.612Z,12.12
2022-10-22T23:37:03.763Z,12.07
2022-10-22T23:39:31.707Z,12.12
2022-10-22T23:41:59.844Z,12.12
2022-10-22T23:44:28.354Z,12.09
2022-10-22T23:46:56.616Z,12.09
2022-10-22T23:49:24.687Z,12.09
2022-10-22T23:51:53.779Z,12.09
2022-10-22T23:54:21.783Z,12.14
2022-10-22T23:56:50.864Z,12.16
2022-10-22T23:59:19.059Z,12.19
